sensor_id;sensor_type;location;lat;lon;timestamp;pressure;altitude;pressure_sealevel;temperature;humidity
79331;BME280;68797;49.782;19.054;2023-10-31T00:02:02;95806.78;;;17.52;54.09
79331;BME280;68797;49.782;19.054;2023-10-31T00:04:28;95817.78;;;17.81;52.52
79331;BME280;68797;49.782;19.054;2023-10-31T00:06:54;95814.28;;;17.69;53.54
79331;BME280;68797;49.782;19.054;2023-10-31T00:09:20;95825.75;;;17.60;55.00
79331;BME280;68797;49.782;19.054;2023-10-31T00:11:47;95819.59;;;17.37;57.00
79331;BME280;68797;49.782;19.054;2023-10-31T00:14:13;95798.34;;;17.02;58.33
79331;BME280;68797;49.782;19.054;2023-10-31T00:16:42;95804.31;;;16.83;59.62
79331;BME280;68797;49.782;19.054;2023-10-31T00:19:08;95820.19;;;16.75;59.19
79331;BME280;68797;49.782;19.054;2023-10-31T00:21:35;95802.72;;;16.59;60.23
79331;BME280;68797;49.782;19.054;2023-10-31T00:24:01;95800.66;;;16.51;62.13
79331;BME280;68797;49.782;19.054;2023-10-31T00:26:29;95794.69;;;16.36;62.82
79331;BME280;68797;49.782;19.054;2023-10-31T00:28:55;95786.38;;;16.17;63.23
79331;BME280;68797;49.782;19.054;2023-10-31T00:31:22;95789.56;;;16.22;62.76
79331;BME280;68797;49.782;19.054;2023-10-31T00:33:48;95802.06;;;16.10;63.12
79331;BME280;68797;49.782;19.054;2023-10-31T00:36:14;95810.69;;;16.14;62.94
79331;BME280;68797;49.782;19.054;2023-10-31T00:38:40;95807.41;;;16.10;62.97
79331;BME280;68797;49.782;19.054;2023-10-31T00:41:07;95791.94;;;16.03;64.05
79331;BME280;68797;49.782;19.054;2023-10-31T00:43:33;95771.16;;;16.06;63.62
79331;BME280;68797;49.782;19.054;2023-10-31T00:46:03;95775.28;;;15.99;63.81
79331;BME280;68797;49.782;19.054;2023-10-31T00:48:29;95786.47;;;16.04;63.93
79331;BME280;68797;49.782;19.054;2023-10-31T00:50:56;95766.53;;;15.97;63.28
79331;BME280;68797;49.782;19.054;2023-10-31T00:53:22;95757.00;;;15.93;63.22
79331;BME280;68797;49.782;19.054;2023-10-31T00:55:48;95758.59;;;15.95;62.81
79331;BME280;68797;49.782;19.054;2023-10-31T00:58:14;95753.25;;;16.07;62.66
79331;BME280;68797;49.782;19.054;2023-10-31T01:00:41;95754.13;;;16.07;62.14
79331;BME280;68797;49.782;19.054;2023-10-31T01:03:07;95748.16;;;16.04;62.46
79331;BME280;68797;49.782;19.054;2023-10-31T01:05:33;95738.94;;;15.96;62.43
79331;BME280;68797;49.782;19.054;2023-10-31T01:08:00;95735.63;;;15.93;62.13
79331;BME280;68797;49.782;19.054;2023-10-31T01:10:26;95728.31;;;15.95;63.11
79331;BME280;68797;49.782;19.054;2023-10-31T01:12:52;95737.09;;;15.86;63.69
79331;BME280;68797;49.782;19.054;2023-10-31T01:15:19;95722.22;;;15.82;63.54
79331;BME280;68797;49.782;19.054;2023-10-31T01:17:45;95706.66;;;15.76;63.29
79331;BME280;68797;49.782;19.054;2023-10-31T01:20:11;95702.50;;;15.72;63.82
79331;BME280;68797;49.782;19.054;2023-10-31T01:22:38;95712.88;;;15.76;63.91
79331;BME280;68797;49.782;19.054;2023-10-31T01:25:04;95716.28;;;15.78;63.00
79331;BME280;68797;49.782;19.054;2023-10-31T01:27:31;95698.78;;;15.85;62.08
79331;BME280;68797;49.782;19.054;2023-10-31T01:29:57;95693.66;;;15.82;62.87
79331;BME280;68797;49.782;19.054;2023-10-31T01:32:24;95693.78;;;15.81;62.53
79331;BME280;68797;49.782;19.054;2023-10-31T01:34:50;95690.63;;;15.76;62.64
79331;BME280;68797;49.782;19.054;2023-10-31T01:37:16;95680.03;;;15.74;62.63
79331;BME280;68797;49.782;19.054;2023-10-31T01:39:45;95681.97;;;15.72;62.36
79331;BME280;68797;49.782;19.054;2023-10-31T01:42:16;95665.94;;;15.83;61.77
79331;BME280;68797;49.782;19.054;2023-10-31T01:44:43;95661.53;;;15.71;62.34
79331;BME280;68797;49.782;19.054;2023-10-31T01:47:09;95655.97;;;15.74;61.91
79331;BME280;68797;49.782;19.054;2023-10-31T01:49:37;95654.50;;;15.70;61.87
79331;BME280;68797;49.782;19.054;2023-10-31T01:52:04;95653.53;;;15.82;62.21
79331;BME280;68797;49.782;19.054;2023-10-31T01:54:33;95647.09;;;15.85;61.63
79331;BME280;68797;49.782;19.054;2023-10-31T01:57:02;95638.22;;;15.84;61.07
79331;BME280;68797;49.782;19.054;2023-10-31T01:59:32;95639.81;;;15.87;60.78
79331;BME280;68797;49.782;19.054;2023-10-31T02:01:59;95609.75;;;15.83;61.12
79331;BME280;68797;49.782;19.054;2023-10-31T02:04:27;95622.66;;;15.78;61.65
79331;BME280;68797;49.782;19.054;2023-10-31T02:06:53;95613.66;;;15.79;61.92
79331;BME280;68797;49.782;19.054;2023-10-31T02:09:20;95605.66;;;15.90;60.46
79331;BME280;68797;49.782;19.054;2023-10-31T02:11:50;95605.41;;;15.93;60.42
79331;BME280;68797;49.782;19.054;2023-10-31T02:14:18;95621.69;;;16.02;60.52
79331;BME280;68797;49.782;19.054;2023-10-31T02:16:44;95608.69;;;15.86;61.38
79331;BME280;68797;49.782;19.054;2023-10-31T02:19:12;95627.28;;;15.98;60.84
79331;BME280;68797;49.782;19.054;2023-10-31T02:21:40;95611.97;;;16.01;60.31
79331;BME280;68797;49.782;19.054;2023-10-31T02:24:07;95611.13;;;16.00;60.39
79331;BME280;68797;49.782;19.054;2023-10-31T02:26:34;95620.13;;;15.99;61.23
79331;BME280;68797;49.782;19.054;2023-10-31T02:29:02;95613.91;;;15.87;60.41
79331;BME280;68797;49.782;19.054;2023-10-31T02:31:28;95611.38;;;15.86;61.57
79331;BME280;68797;49.782;19.054;2023-10-31T02:33:55;95613.78;;;15.78;61.98
79331;BME280;68797;49.782;19.054;2023-10-31T02:36:21;95613.53;;;15.92;60.77
79331;BME280;68797;49.782;19.054;2023-10-31T02:38:48;95607.22;;;15.82;60.96
79331;BME280;68797;49.782;19.054;2023-10-31T02:41:14;95608.44;;;15.78;61.32
79331;BME280;68797;49.782;19.054;2023-10-31T02:43:41;95613.41;;;15.71;62.58
79331;BME280;68797;49.782;19.054;2023-10-31T02:46:08;95606.50;;;15.80;62.38
79331;BME280;68797;49.782;19.054;2023-10-31T02:48:34;95601.53;;;15.75;62.13
79331;BME280;68797;49.782;19.054;2023-10-31T02:51:07;95573.19;;;15.73;61.23
79331;BME280;68797;49.782;19.054;2023-10-31T02:53:34;95586.19;;;15.77;60.71
79331;BME280;68797;49.782;19.054;2023-10-31T02:56:02;95585.69;;;15.83;61.30
79331;BME280;68797;49.782;19.054;2023-10-31T02:58:29;95593.84;;;15.82;61.73
79331;BME280;68797;49.782;19.054;2023-10-31T03:00:55;95597.50;;;16.03;59.19
79331;BME280;68797;49.782;19.054;2023-10-31T03:03:22;95604.88;;;16.33;57.70
79331;BME280;68797;49.782;19.054;2023-10-31T03:05:48;95595.03;;;16.22;59.64
79331;BME280;68797;49.782;19.054;2023-10-31T03:08:16;95584.69;;;16.18;59.19
79331;BME280;68797;49.782;19.054;2023-10-31T03:10:48;95598.44;;;16.13;60.29
79331;BME280;68797;49.782;19.054;2023-10-31T03:13:19;95594.69;;;16.05;59.76
79331;BME280;68797;49.782;19.054;2023-10-31T03:15:46;95588.34;;;16.06;59.28
79331;BME280;68797;49.782;19.054;2023-10-31T03:18:13;95588.59;;;16.14;58.72
79331;BME280;68797;49.782;19.054;2023-10-31T03:20:45;95583.34;;;16.23;58.33
79331;BME280;68797;49.782;19.054;2023-10-31T03:23:13;95578.25;;;16.32;58.01
79331;BME280;68797;49.782;19.054;2023-10-31T03:25:39;95580.69;;;16.23;59.21
79331;BME280;68797;49.782;19.054;2023-10-31T03:28:19;95582.25;;;16.26;58.71
79331;BME280;68797;49.782;19.054;2023-10-31T03:30:47;95560.88;;;16.15;59.11
79331;BME280;68797;49.782;19.054;2023-10-31T03:33:14;95582.75;;;16.20;58.78
79331;BME280;68797;49.782;19.054;2023-10-31T03:35:44;95579.47;;;16.16;59.38
79331;BME280;68797;49.782;19.054;2023-10-31T03:38:10;95548.34;;;16.04;59.49
79331;BME280;68797;49.782;19.054;2023-10-31T03:40:38;95554.66;;;16.14;58.36
79331;BME280;68797;49.782;19.054;2023-10-31T03:43:04;95561.84;;;16.14;59.10
79331;BME280;68797;49.782;19.054;2023-10-31T03:45:31;95541.66;;;16.10;59.60
79331;BME280;68797;49.782;19.054;2023-10-31T03:48:00;95546.59;;;16.25;58.82
79331;BME280;68797;49.782;19.054;2023-10-31T03:50:27;95537.72;;;16.25;57.96
79331;BME280;68797;49.782;19.054;2023-10-31T03:52:54;95532.59;;;16.33;57.07
79331;BME280;68797;49.782;19.054;2023-10-31T03:55:21;95536.00;;;16.35;58.45
79331;BME280;68797;49.782;19.054;2023-10-31T03:57:48;95538.19;;;16.41;58.06
79331;BME280;68797;49.782;19.054;2023-10-31T04:00:16;95536.47;;;16.40;57.11
79331;BME280;68797;49.782;19.054;2023-10-31T04:02:46;95532.47;;;16.35;57.29
79331;BME280;68797;49.782;19.054;2023-10-31T04:05:13;95512.97;;;16.44;56.68
79331;BME280;68797;49.782;19.054;2023-10-31T04:07:41;95525.44;;;16.34;57.06
79331;BME280;68797;49.782;19.054;2023-10-31T04:10:09;95531.41;;;16.26;58.05
79331;BME280;68797;49.782;19.054;2023-10-31T04:12:36;95528.84;;;16.24;58.29
79331;BME280;68797;49.782;19.054;2023-10-31T04:15:04;95522.41;;;16.16;58.40
79331;BME280;68797;49.782;19.054;2023-10-31T04:17:31;95528.00;;;16.24;57.54
79331;BME280;68797;49.782;19.054;2023-10-31T04:19:57;95538.47;;;16.16;58.39
79331;BME280;68797;49.782;19.054;2023-10-31T04:22:24;95526.06;;;16.15;58.32
79331;BME280;68797;49.782;19.054;2023-10-31T04:24:50;95521.25;;;16.09;59.04
79331;BME280;68797;49.782;19.054;2023-10-31T04:27:18;95520.97;;;16.12;57.55
79331;BME280;68797;49.782;19.054;2023-10-31T04:29:45;95512.47;;;16.07;59.08
79331;BME280;68797;49.782;19.054;2023-10-31T04:32:12;95531.13;;;15.97;59.56
79331;BME280;68797;49.782;19.054;2023-10-31T04:34:39;95528.94;;;15.80;60.12
79331;BME280;68797;49.782;19.054;2023-10-31T04:37:07;95513.38;;;15.74;60.75
79331;BME280;68797;49.782;19.054;2023-10-31T04:39:33;95511.19;;;15.67;60.14
79331;BME280;68797;49.782;19.054;2023-10-31T04:41:59;95488.59;;;15.60;60.24
79331;BME280;68797;49.782;19.054;2023-10-31T04:44:26;95524.69;;;15.66;59.75
79331;BME280;68797;49.782;19.054;2023-10-31T04:46:53;95517.50;;;15.55;61.49
79331;BME280;68797;49.782;19.054;2023-10-31T04:49:27;95510.59;;;15.53;62.72
79331;BME280;68797;49.782;19.054;2023-10-31T04:51:54;95498.28;;;15.50;61.17
79331;BME280;68797;49.782;19.054;2023-10-31T04:54:21;95522.28;;;15.63;60.89
79331;BME280;68797;49.782;19.054;2023-10-31T04:56:49;95502.69;;;15.62;60.81
79331;BME280;68797;49.782;19.054;2023-10-31T04:59:16;95500.84;;;15.52;61.47
79331;BME280;68797;49.782;19.054;2023-10-31T05:01:50;95522.34;;;15.50;62.58
79331;BME280;68797;49.782;19.054;2023-10-31T05:04:17;95490.28;;;15.61;60.10
79331;BME280;68797;49.782;19.054;2023-10-31T05:06:45;95512.44;;;15.63;61.08
79331;BME280;68797;49.782;19.054;2023-10-31T05:09:15;95524.78;;;15.53;60.86
79331;BME280;68797;49.782;19.054;2023-10-31T05:11:42;95515.69;;;15.56;60.42
79331;BME280;68797;49.782;19.054;2023-10-31T05:14:10;95509.00;;;15.61;59.97
79331;BME280;68797;49.782;19.054;2023-10-31T05:16:40;95517.75;;;15.97;57.46
79331;BME280;68797;49.782;19.054;2023-10-31T05:19:07;95516.94;;;16.17;57.13
79331;BME280;68797;49.782;19.054;2023-10-31T05:21:34;95510.44;;;16.42;55.77
79331;BME280;68797;49.782;19.054;2023-10-31T05:24:02;95529.72;;;16.57;55.57
79331;BME280;68797;49.782;19.054;2023-10-31T05:26:29;95492.56;;;16.75;54.32
79331;BME280;68797;49.782;19.054;2023-10-31T05:28:55;95491.09;;;16.92;53.72
79331;BME280;68797;49.782;19.054;2023-10-31T05:31:24;95502.09;;;16.89;55.01
79331;BME280;68797;49.782;19.054;2023-10-31T05:33:51;95498.22;;;16.81;56.02
79331;BME280;68797;49.782;19.054;2023-10-31T05:36:20;95500.59;;;16.75;55.48
79331;BME280;68797;49.782;19.054;2023-10-31T05:38:46;95514.59;;;16.67;55.56
79331;BME280;68797;49.782;19.054;2023-10-31T05:41:16;95458.97;;;16.71;54.66
79331;BME280;68797;49.782;19.054;2023-10-31T05:43:42;95521.88;;;16.76;54.31
79331;BME280;68797;49.782;19.054;2023-10-31T05:46:09;95488.75;;;16.77;54.64
79331;BME280;68797;49.782;19.054;2023-10-31T05:48:44;95508.50;;;16.76;54.40
79331;BME280;68797;49.782;19.054;2023-10-31T05:51:15;95521.88;;;16.76;56.26
79331;BME280;68797;49.782;19.054;2023-10-31T05:53:43;95530.78;;;16.66;54.59
79331;BME280;68797;49.782;19.054;2023-10-31T05:56:12;95524.44;;;16.78;54.04
79331;BME280;68797;49.782;19.054;2023-10-31T05:58:39;95524.28;;;16.79;54.14
79331;BME280;68797;49.782;19.054;2023-10-31T06:01:07;95515.47;;;16.68;54.68
79331;BME280;68797;49.782;19.054;2023-10-31T06:03:37;95519.84;;;16.69;55.51
79331;BME280;68797;49.782;19.054;2023-10-31T06:06:04;95533.44;;;16.77;54.27
79331;BME280;68797;49.782;19.054;2023-10-31T06:08:31;95513.75;;;16.67;54.77
79331;BME280;68797;49.782;19.054;2023-10-31T06:10:58;95511.44;;;16.62;54.30
79331;BME280;68797;49.782;19.054;2023-10-31T06:13:26;95499.97;;;16.71;54.10
79331;BME280;68797;49.782;19.054;2023-10-31T06:47:10;95579.34;;;16.18;59.47
79331;BME280;68797;49.782;19.054;2023-10-31T06:49:37;95542.97;;;16.15;58.34
79331;BME280;68797;49.782;19.054;2023-10-31T06:52:04;95538.84;;;16.22;57.91
79331;BME280;68797;49.782;19.054;2023-10-31T06:54:31;95556.88;;;16.09;58.52
79331;BME280;68797;49.782;19.054;2023-10-31T06:56:58;95571.94;;;16.10;59.48
79331;BME280;68797;49.782;19.054;2023-10-31T06:59:27;95568.28;;;16.11;60.08
79331;BME280;68797;49.782;19.054;2023-10-31T07:01:55;95566.34;;;16.13;58.75
79331;BME280;68797;49.782;19.054;2023-10-31T07:04:22;95563.41;;;16.16;59.48
79331;BME280;68797;49.782;19.054;2023-10-31T07:06:49;95573.25;;;16.16;59.82
79331;BME280;68797;49.782;19.054;2023-10-31T07:09:19;95589.44;;;16.14;60.73
79331;BME280;68797;49.782;19.054;2023-10-31T07:11:47;95578.03;;;16.12;59.72
79331;BME280;68797;49.782;19.054;2023-10-31T07:14:14;95581.28;;;16.16;60.30
79331;BME280;68797;49.782;19.054;2023-10-31T07:16:41;95592.38;;;16.11;60.20
79331;BME280;68797;49.782;19.054;2023-10-31T07:19:10;95593.47;;;16.09;60.92
79331;BME280;68797;49.782;19.054;2023-10-31T07:21:37;95606.22;;;16.16;60.38
79331;BME280;68797;49.782;19.054;2023-10-31T07:24:05;95640.41;;;16.24;59.58
79331;BME280;68797;49.782;19.054;2023-10-31T07:26:35;95601.72;;;16.17;60.22
79331;BME280;68797;49.782;19.054;2023-10-31T07:29:02;95606.84;;;16.20;61.11
79331;BME280;68797;49.782;19.054;2023-10-31T07:31:29;95597.34;;;16.05;61.17
79331;BME280;68797;49.782;19.054;2023-10-31T07:33:57;95613.41;;;16.05;61.40
79331;BME280;68797;49.782;19.054;2023-10-31T07:36:24;95583.50;;;16.11;59.98
79331;BME280;68797;49.782;19.054;2023-10-31T07:38:52;95583.84;;;16.06;61.04
79331;BME280;68797;49.782;19.054;2023-10-31T07:41:19;95581.16;;;16.17;60.57
79331;BME280;68797;49.782;19.054;2023-10-31T07:43:46;95569.38;;;16.20;60.20
79331;BME280;68797;49.782;19.054;2023-10-31T07:46:12;95600.13;;;16.25;61.40
79331;BME280;68797;49.782;19.054;2023-10-31T07:48:39;95577.53;;;16.18;61.42
79331;BME280;68797;49.782;19.054;2023-10-31T07:51:07;95569.50;;;16.18;61.52
79331;BME280;68797;49.782;19.054;2023-10-31T07:53:34;95591.38;;;16.23;61.40
79331;BME280;68797;49.782;19.054;2023-10-31T07:56:03;95587.47;;;16.27;60.24
79331;BME280;68797;49.782;19.054;2023-10-31T07:58:30;95606.22;;;16.27;62.28
79331;BME280;68797;49.782;19.054;2023-10-31T08:00:57;95613.75;;;16.34;60.99
79331;BME280;68797;49.782;19.054;2023-10-31T08:03:27;95628.97;;;16.33;60.86
79331;BME280;68797;49.782;19.054;2023-10-31T08:05:54;95632.38;;;16.35;62.69
79331;BME280;68797;49.782;19.054;2023-10-31T08:08:21;95641.13;;;16.37;61.39
79331;BME280;68797;49.782;19.054;2023-10-31T08:10:49;95639.94;;;16.30;61.56
79331;BME280;68797;49.782;19.054;2023-10-31T08:13:16;95639.69;;;16.33;60.89
79331;BME280;68797;49.782;19.054;2023-10-31T08:15:43;95649.88;;;16.39;62.68
79331;BME280;68797;49.782;19.054;2023-10-31T08:18:09;95667.41;;;16.32;63.17
79331;BME280;68797;49.782;19.054;2023-10-31T08:20:36;95660.25;;;16.21;62.31
79331;BME280;68797;49.782;19.054;2023-10-31T08:23:03;95659.28;;;16.22;63.12
79331;BME280;68797;49.782;19.054;2023-10-31T08:25:30;95680.44;;;16.03;63.94
79331;BME280;68797;49.782;19.054;2023-10-31T08:27:57;95642.13;;;16.03;63.41
79331;BME280;68797;49.782;19.054;2023-10-31T08:30:23;95674.47;;;16.11;64.44
79331;BME280;68797;49.782;19.054;2023-10-31T08:32:50;95668.41;;;16.09;62.41
79331;BME280;68797;49.782;19.054;2023-10-31T08:35:16;95683.69;;;16.07;64.17
79331;BME280;68797;49.782;19.054;2023-10-31T08:37:43;95677.03;;;16.01;64.78
79331;BME280;68797;49.782;19.054;2023-10-31T08:40:09;95675.06;;;16.14;62.79
79331;BME280;68797;49.782;19.054;2023-10-31T08:42:36;95703.91;;;16.11;63.49
79331;BME280;68797;49.782;19.054;2023-10-31T08:45:03;95700.50;;;16.20;62.13
79331;BME280;68797;49.782;19.054;2023-10-31T08:47:30;95701.50;;;16.19;62.64
79331;BME280;68797;49.782;19.054;2023-10-31T08:49:56;95708.03;;;16.26;62.90
79331;BME280;68797;49.782;19.054;2023-10-31T08:52:23;95719.00;;;16.34;61.83
79331;BME280;68797;49.782;19.054;2023-10-31T08:54:49;95698.06;;;16.28;61.39
79331;BME280;68797;49.782;19.054;2023-10-31T08:57:16;95725.81;;;16.27;63.29
79331;BME280;68797;49.782;19.054;2023-10-31T08:59:42;95716.91;;;16.26;63.19
79331;BME280;68797;49.782;19.054;2023-10-31T09:02:09;95744.53;;;16.27;62.46
79331;BME280;68797;49.782;19.054;2023-10-31T09:04:35;95732.75;;;16.18;63.44
79331;BME280;68797;49.782;19.054;2023-10-31T09:07:02;95750.50;;;16.08;62.17
79331;BME280;68797;49.782;19.054;2023-10-31T09:09:28;95753.38;;;16.05;62.75
79331;BME280;68797;49.782;19.054;2023-10-31T09:11:55;95766.66;;;16.07;62.85
79331;BME280;68797;49.782;19.054;2023-10-31T09:14:21;95765.16;;;15.91;63.71
79331;BME280;68797;49.782;19.054;2023-10-31T09:16:47;95776.84;;;15.90;63.58
79331;BME280;68797;49.782;19.054;2023-10-31T09:19:14;95782.41;;;15.76;63.99
79331;BME280;68797;49.782;19.054;2023-10-31T09:21:40;95803.28;;;15.71;64.47
79331;BME280;68797;49.782;19.054;2023-10-31T09:24:07;95804.97;;;15.72;64.80
79331;BME280;68797;49.782;19.054;2023-10-31T09:26:35;95799.88;;;15.69;65.12
79331;BME280;68797;49.782;19.054;2023-10-31T09:29:01;95804.53;;;15.78;65.06
79331;BME280;68797;49.782;19.054;2023-10-31T09:31:28;95819.72;;;15.78;65.16
79331;BME280;68797;49.782;19.054;2023-10-31T09:33:54;95791.75;;;15.82;64.83
79331;BME280;68797;49.782;19.054;2023-10-31T09:36:20;95800.41;;;16.32;64.48
79331;BME280;68797;49.782;19.054;2023-10-31T09:38:47;95785.69;;;16.48;66.07
79331;BME280;68797;49.782;19.054;2023-10-31T09:41:13;95799.31;;;16.45;63.30
79331;BME280;68797;49.782;19.054;2023-10-31T09:43:42;95813.78;;;16.32;64.58
79331;BME280;68797;49.782;19.054;2023-10-31T09:46:08;95811.31;;;16.17;64.92
79331;BME280;68797;49.782;19.054;2023-10-31T09:48:35;95817.38;;;15.97;65.95
79331;BME280;68797;49.782;19.054;2023-10-31T09:51:02;95815.03;;;15.92;65.93
79331;BME280;68797;49.782;19.054;2023-10-31T09:53:31;95823.84;;;15.82;65.84
79331;BME280;68797;49.782;19.054;2023-10-31T09:55:59;95815.84;;;15.58;65.07
79331;BME280;68797;49.782;19.054;2023-10-31T09:58:25;95813.50;;;15.53;67.20
79331;BME280;68797;49.782;19.054;2023-10-31T10:00:52;95830.50;;;15.65;66.33
79331;BME280;68797;49.782;19.054;2023-10-31T10:03:18;95810.31;;;15.48;68.12
79331;BME280;68797;49.782;19.054;2023-10-31T10:05:48;95814.78;;;15.60;67.24
79331;BME280;68797;49.782;19.054;2023-10-31T10:08:15;95816.91;;;15.55;68.08
79331;BME280;68797;49.782;19.054;2023-10-31T10:10:42;95812.88;;;15.50;68.81
79331;BME280;68797;49.782;19.054;2023-10-31T10:13:09;95815.50;;;15.38;68.06
79331;BME280;68797;49.782;19.054;2023-10-31T10:15:50;95820.09;;;15.36;68.59
79331;BME280;68797;49.782;19.054;2023-10-31T10:18:44;95818.09;;;15.27;68.64
79331;BME280;68797;49.782;19.054;2023-10-31T10:21:11;95817.28;;;15.14;70.00
79331;BME280;68797;49.782;19.054;2023-10-31T10:23:40;95805.56;;;15.04;70.20
79331;BME280;68797;49.782;19.054;2023-10-31T10:26:07;95812.19;;;15.11;70.69
79331;BME280;68797;49.782;19.054;2023-10-31T10:28:33;95809.06;;;15.17;69.06
79331;BME280;68797;49.782;19.054;2023-10-31T10:31:00;95814.22;;;15.07;70.20
79331;BME280;68797;49.782;19.054;2023-10-31T10:33:26;95820.75;;;15.03;70.05
79331;BME280;68797;49.782;19.054;2023-10-31T10:35:54;95819.38;;;14.98;70.46
79331;BME280;68797;49.782;19.054;2023-10-31T10:38:22;95838.25;;;15.07;69.63
79331;BME280;68797;49.782;19.054;2023-10-31T10:40:49;95823.03;;;14.84;72.81
79331;BME280;68797;49.782;19.054;2023-10-31T10:43:25;95815.38;;;14.79;72.50
79331;BME280;68797;49.782;19.054;2023-10-31T10:45:58;95842.03;;;14.92;71.23
79331;BME280;68797;49.782;19.054;2023-10-31T10:48:26;95821.13;;;14.86;70.62
79331;BME280;68797;49.782;19.054;2023-10-31T10:53:30;95835.03;;;14.78;72.06
79331;BME280;68797;49.782;19.054;2023-10-31T10:56:07;95826.47;;;14.86;71.32
79331;BME280;68797;49.782;19.054;2023-10-31T10:58:56;95805.97;;;14.87;72.43
79331;BME280;68797;49.782;19.054;2023-10-31T11:01:27;95804.59;;;15.05;72.18
79331;BME280;68797;49.782;19.054;2023-10-31T11:03:55;95810.81;;;15.05;71.96
79331;BME280;68797;49.782;19.054;2023-10-31T11:06:21;95837.41;;;15.07;73.69
79331;BME280;68797;49.782;19.054;2023-10-31T11:08:49;95830.81;;;15.00;70.92
79331;BME280;68797;49.782;19.054;2023-10-31T11:11:19;95811.69;;;14.93;70.27
79331;BME280;68797;49.782;19.054;2023-10-31T11:13:46;95826.56;;;14.85;71.54
79331;BME280;68797;49.782;19.054;2023-10-31T11:16:48;95817.59;;;14.86;71.45
79331;BME280;68797;49.782;19.054;2023-10-31T11:19:17;95808.31;;;14.78;72.70
79331;BME280;68797;49.782;19.054;2023-10-31T11:21:54;95804.47;;;14.70;71.99
79331;BME280;68797;49.782;19.054;2023-10-31T11:24:22;95829.59;;;14.67;72.81
79331;BME280;68797;49.782;19.054;2023-10-31T11:26:52;95842.59;;;14.72;72.57
79331;BME280;68797;49.782;19.054;2023-10-31T11:29:18;95815.69;;;14.62;73.07
79331;BME280;68797;49.782;19.054;2023-10-31T11:31:48;95827.88;;;14.66;73.30
79331;BME280;68797;49.782;19.054;2023-10-31T11:34:16;95805.41;;;14.81;73.35
79331;BME280;68797;49.782;19.054;2023-10-31T11:36:45;95815.09;;;15.08;73.27
79331;BME280;68797;49.782;19.054;2023-10-31T11:39:14;95814.75;;;15.13;70.69
79331;BME280;68797;49.782;19.054;2023-10-31T11:41:47;95821.13;;;15.23;71.63
79331;BME280;68797;49.782;19.054;2023-10-31T11:44:15;95797.19;;;15.21;72.26
79331;BME280;68797;49.782;19.054;2023-10-31T11:46:41;95798.38;;;15.17;70.04
79331;BME280;68797;49.782;19.054;2023-10-31T11:49:10;95790.47;;;15.16;70.60
79331;BME280;68797;49.782;19.054;2023-10-31T11:51:36;95788.44;;;15.19;70.14
79331;BME280;68797;49.782;19.054;2023-10-31T11:54:03;95801.22;;;15.27;72.75
79331;BME280;68797;49.782;19.054;2023-10-31T11:56:33;95802.59;;;15.32;71.50
79331;BME280;68797;49.782;19.054;2023-10-31T11:59:04;95779.28;;;15.34;73.08
79331;BME280;68797;49.782;19.054;2023-10-31T12:01:33;95766.94;;;15.45;73.33
79331;BME280;68797;49.782;19.054;2023-10-31T12:04:00;95771.44;;;15.44;72.77
79331;BME280;68797;49.782;19.054;2023-10-31T12:06:26;95760.31;;;15.37;72.41
79331;BME280;68797;49.782;19.054;2023-10-31T12:08:52;95762.94;;;15.50;73.07
79331;BME280;68797;49.782;19.054;2023-10-31T12:11:21;95756.41;;;15.54;72.68
79331;BME280;68797;49.782;19.054;2023-10-31T12:14:02;95751.06;;;15.54;72.84
79331;BME280;68797;49.782;19.054;2023-10-31T12:16:32;95736.56;;;15.46;72.03
79331;BME280;68797;49.782;19.054;2023-10-31T12:21:36;95728.78;;;15.43;73.04
79331;BME280;68797;49.782;19.054;2023-10-31T12:24:04;95713.31;;;15.35;72.90
79331;BME280;68797;49.782;19.054;2023-10-31T12:26:37;95705.41;;;15.33;73.26
79331;BME280;68797;49.782;19.054;2023-10-31T12:29:15;95714.63;;;15.29;73.49
79331;BME280;68797;49.782;19.054;2023-10-31T12:31:52;95732.34;;;15.19;73.85
79331;BME280;68797;49.782;19.054;2023-10-31T12:34:23;95725.56;;;15.02;74.59
79331;BME280;68797;49.782;19.054;2023-10-31T12:36:52;95740.22;;;14.97;74.89
79331;BME280;68797;49.782;19.054;2023-10-31T12:39:21;95743.22;;;14.92;76.54
79331;BME280;68797;49.782;19.054;2023-10-31T12:41:49;95761.19;;;14.90;76.11
79331;BME280;68797;49.782;19.054;2023-10-31T12:44:26;95751.16;;;14.81;77.73
79331;BME280;68797;49.782;19.054;2023-10-31T12:46:53;95753.44;;;14.74;75.76
79331;BME280;68797;49.782;19.054;2023-10-31T12:49:20;95754.59;;;14.70;78.47
79331;BME280;68797;49.782;19.054;2023-10-31T12:52:01;95764.97;;;14.75;75.75
79331;BME280;68797;49.782;19.054;2023-10-31T12:54:35;95770.00;;;14.67;77.49
79331;BME280;68797;49.782;19.054;2023-10-31T12:57:04;95760.09;;;14.56;77.37
79331;BME280;68797;49.782;19.054;2023-10-31T12:59:33;95780.06;;;14.63;77.40
79331;BME280;68797;49.782;19.054;2023-10-31T13:02:01;95774.72;;;14.50;78.99
79331;BME280;68797;49.782;19.054;2023-10-31T13:04:30;95761.72;;;14.46;82.05
79331;BME280;68797;49.782;19.054;2023-10-31T13:09:32;95750.94;;;14.22;83.67
79331;BME280;68797;49.782;19.054;2023-10-31T13:12:04;95750.63;;;14.14;84.83
79331;BME280;68797;49.782;19.054;2023-10-31T13:14:31;95754.47;;;14.22;85.79
79331;BME280;68797;49.782;19.054;2023-10-31T13:16:58;95750.38;;;14.17;87.33
79331;BME280;68797;49.782;19.054;2023-10-31T13:19:25;95736.94;;;14.06;89.22
79331;BME280;68797;49.782;19.054;2023-10-31T13:21:51;95741.88;;;13.99;90.21
79331;BME280;68797;49.782;19.054;2023-10-31T13:24:17;95749.34;;;13.94;90.58
79331;BME280;68797;49.782;19.054;2023-10-31T13:26:45;95756.19;;;13.98;91.08
79331;BME280;68797;49.782;19.054;2023-10-31T13:29:18;95744.97;;;13.93;91.40
79331;BME280;68797;49.782;19.054;2023-10-31T13:31:45;95752.63;;;13.85;92.04
79331;BME280;68797;49.782;19.054;2023-10-31T13:34:11;95748.81;;;13.76;92.27